sensor_id;sensor_type;location;lat;lon;timestamp;P1;durP1;ratioP1;P2;durP2;ratioP2
39022;SDS011;25908;51.984;5.928;2022-08-19T00:02:21;8.57;;;5.05;;
39022;SDS011;25908;51.984;5.928;2022-08-19T00:04:47;5.72;;;4.82;;
39022;SDS011;25908;51.984;5.928;2022-08-19T00:07:17;6.20;;;5.35;;
39022;SDS011;25908;51.984;5.928;2022-08-19T00:09:46;9.68;;;5.43;;
39022;SDS011;25908;51.984;5.928;2022-08-19T00:12:12;7.95;;;5.32;;
39022;SDS011;25908;51.984;5.928;2022-08-19T00:14:38;7.20;;;5.70;;
39022;SDS011;25908;51.984;5.928;2022-08-19T00:17:05;6.63;;;5.70;;
39022;SDS011;25908;51.984;5.928;2022-08-19T00:19:32;7.22;;;6.20;;
39022;SDS011;25908;51.984;5.928;2022-08-19T00:21:59;6.72;;;5.95;;
39022;SDS011;25908;51.984;5.928;2022-08-19T00:24:24;7.13;;;6.38;;
39022;SDS011;25908;51.984;5.928;2022-08-19T00:26:51;8.75;;;6.85;;
39022;SDS011;25908;51.984;5.928;2022-08-19T00:29:18;7.28;;;6.10;;
39022;SDS011;25908;51.984;5.928;2022-08-19T00:31:46;7.60;;;6.47;;
39022;SDS011;25908;51.984;5.928;2022-08-19T00:34:12;8.23;;;6.90;;
39022;SDS011;25908;51.984;5.928;2022-08-19T00:36:39;8.52;;;7.38;;
39022;SDS011;25908;51.984;5.928;2022-08-19T00:39:06;9.55;;;7.85;;
39022;SDS011;25908;51.984;5.928;2022-08-19T00:41:32;8.15;;;7.05;;
39022;SDS011;25908;51.984;5.928;2022-08-19T00:44:05;8.18;;;7.30;;
39022;SDS011;25908;51.984;5.928;2022-08-19T00:46:36;9.05;;;7.70;;
39022;SDS011;25908;51.984;5.928;2022-08-19T00:49:15;9.55;;;8.13;;
39022;SDS011;25908;51.984;5.928;2022-08-19T00:51:48;9.77;;;7.97;;
39022;SDS011;25908;51.984;5.928;2022-08-19T00:54:19;10.27;;;7.60;;
39022;SDS011;25908;51.984;5.928;2022-08-19T00:56:46;9.38;;;7.80;;
39022;SDS011;25908;51.984;5.928;2022-08-19T00:59:13;8.95;;;8.05;;
39022;SDS011;25908;51.984;5.928;2022-08-19T01:01:40;8.80;;;7.15;;
39022;SDS011;25908;51.984;5.928;2022-08-19T01:04:07;8.57;;;7.30;;
39022;SDS011;25908;51.984;5.928;2022-08-19T01:06:33;10.00;;;7.88;;
39022;SDS011;25908;51.984;5.928;2022-08-19T01:09:02;8.32;;;7.45;;
39022;SDS011;25908;51.984;5.928;2022-08-19T01:11:28;8.10;;;6.82;;
39022;SDS011;25908;51.984;5.928;2022-08-19T01:13:56;10.57;;;6.75;;
39022;SDS011;25908;51.984;5.928;2022-08-19T01:16:24;9.57;;;8.35;;
39022;SDS011;25908;51.984;5.928;2022-08-19T01:18:51;8.85;;;7.95;;
39022;SDS011;25908;51.984;5.928;2022-08-19T01:21:31;8.68;;;7.70;;
39022;SDS011;25908;51.984;5.928;2022-08-19T01:24:11;10.05;;;8.45;;
39022;SDS011;25908;51.984;5.928;2022-08-19T01:26:40;9.68;;;8.68;;
39022;SDS011;25908;51.984;5.928;2022-08-19T01:29:08;10.05;;;8.82;;
39022;SDS011;25908;51.984;5.928;2022-08-19T01:31:34;9.27;;;8.32;;
39022;SDS011;25908;51.984;5.928;2022-08-19T01:34:01;10.30;;;9.07;;
39022;SDS011;25908;51.984;5.928;2022-08-19T01:36:35;9.50;;;8.52;;
39022;SDS011;25908;51.984;5.928;2022-08-19T01:39:07;11.00;;;8.63;;
39022;SDS011;25908;51.984;5.928;2022-08-19T01:41:35;10.40;;;8.55;;
39022;SDS011;25908;51.984;5.928;2022-08-19T01:44:01;10.45;;;8.85;;
39022;SDS011;25908;51.984;5.928;2022-08-19T01:46:29;10.88;;;8.85;;
39022;SDS011;25908;51.984;5.928;2022-08-19T01:48:56;10.98;;;8.65;;
39022;SDS011;25908;51.984;5.928;2022-08-19T01:51:21;12.60;;;9.30;;
39022;SDS011;25908;51.984;5.928;2022-08-19T01:53:48;10.02;;;8.48;;
39022;SDS011;25908;51.984;5.928;2022-08-19T01:56:15;10.50;;;9.43;;
39022;SDS011;25908;51.984;5.928;2022-08-19T01:58:41;9.80;;;8.80;;
39022;SDS011;25908;51.984;5.928;2022-08-19T02:01:14;11.15;;;9.20;;
39022;SDS011;25908;51.984;5.928;2022-08-19T02:03:39;9.77;;;8.60;;
39022;SDS011;25908;51.984;5.928;2022-08-19T02:06:05;9.85;;;8.70;;
39022;SDS011;25908;51.984;5.928;2022-08-19T02:08:31;10.02;;;8.93;;
39022;SDS011;25908;51.984;5.928;2022-08-19T02:10:59;10.00;;;8.85;;
39022;SDS011;25908;51.984;5.928;2022-08-19T02:13:25;10.45;;;9.43;;
39022;SDS011;25908;51.984;5.928;2022-08-19T02:15:51;10.65;;;9.35;;
39022;SDS011;25908;51.984;5.928;2022-08-19T02:18:17;10.00;;;8.73;;
39022;SDS011;25908;51.984;5.928;2022-08-19T02:20:43;15.10;;;9.15;;
39022;SDS011;25908;51.984;5.928;2022-08-19T02:23:10;11.75;;;9.48;;
39022;SDS011;25908;51.984;5.928;2022-08-19T02:25:36;11.70;;;9.75;;
39022;SDS011;25908;51.984;5.928;2022-08-19T02:28:03;11.05;;;9.82;;
39022;SDS011;25908;51.984;5.928;2022-08-19T02:30:28;11.02;;;9.70;;
39022;SDS011;25908;51.984;5.928;2022-08-19T02:32:54;11.77;;;10.00;;
39022;SDS011;25908;51.984;5.928;2022-08-19T02:35:20;13.50;;;10.43;;
39022;SDS011;25908;51.984;5.928;2022-08-19T02:37:46;11.45;;;9.90;;
39022;SDS011;25908;51.984;5.928;2022-08-19T02:40:31;11.50;;;9.68;;
39022;SDS011;25908;51.984;5.928;2022-08-19T02:43:04;11.70;;;10.50;;
39022;SDS011;25908;51.984;5.928;2022-08-19T02:45:33;11.27;;;9.93;;
39022;SDS011;25908;51.984;5.928;2022-08-19T02:48:00;10.88;;;9.07;;
39022;SDS011;25908;51.984;5.928;2022-08-19T02:50:25;12.15;;;10.43;;
39022;SDS011;25908;51.984;5.928;2022-08-19T02:52:51;12.55;;;10.45;;
39022;SDS011;25908;51.984;5.928;2022-08-19T02:55:17;12.43;;;9.88;;
39022;SDS011;25908;51.984;5.928;2022-08-19T02:57:42;12.70;;;10.20;;
39022;SDS011;25908;51.984;5.928;2022-08-19T03:00:08;10.93;;;9.50;;
39022;SDS011;25908;51.984;5.928;2022-08-19T03:02:37;11.32;;;8.80;;
39022;SDS011;25908;51.984;5.928;2022-08-19T03:05:04;11.48;;;9.15;;
39022;SDS011;25908;51.984;5.928;2022-08-19T03:07:31;10.15;;;9.10;;
39022;SDS011;25908;51.984;5.928;2022-08-19T03:09:57;11.65;;;10.45;;
39022;SDS011;25908;51.984;5.928;2022-08-19T03:12:23;10.45;;;8.95;;
39022;SDS011;25908;51.984;5.928;2022-08-19T03:14:49;11.15;;;9.95;;
39022;SDS011;25908;51.984;5.928;2022-08-19T03:17:15;11.93;;;9.05;;
39022;SDS011;25908;51.984;5.928;2022-08-19T03:19:41;10.45;;;9.35;;
39022;SDS011;25908;51.984;5.928;2022-08-19T03:22:08;10.63;;;9.52;;
39022;SDS011;25908;51.984;5.928;2022-08-19T03:24:34;11.15;;;10.00;;
39022;SDS011;25908;51.984;5.928;2022-08-19T03:27:00;11.18;;;9.35;;
39022;SDS011;25908;51.984;5.928;2022-08-19T03:29:27;11.80;;;10.00;;
39022;SDS011;25908;51.984;5.928;2022-08-19T03:31:53;10.85;;;9.75;;
39022;SDS011;25908;51.984;5.928;2022-08-19T03:34:21;11.73;;;10.45;;
39022;SDS011;25908;51.984;5.928;2022-08-19T03:36:51;12.48;;;10.73;;
39022;SDS011;25908;51.984;5.928;2022-08-19T03:39:19;12.52;;;11.23;;
39022;SDS011;25908;51.984;5.928;2022-08-19T03:41:45;14.20;;;10.10;;
39022;SDS011;25908;51.984;5.928;2022-08-19T03:44:12;10.32;;;9.25;;
39022;SDS011;25908;51.984;5.928;2022-08-19T03:46:38;10.70;;;9.35;;
39022;SDS011;25908;51.984;5.928;2022-08-19T03:49:04;11.10;;;9.73;;
39022;SDS011;25908;51.984;5.928;2022-08-19T03:51:34;13.07;;;10.07;;
39022;SDS011;25908;51.984;5.928;2022-08-19T03:54:03;11.32;;;9.15;;
39022;SDS011;25908;51.984;5.928;2022-08-19T03:56:33;11.68;;;10.45;;
39022;SDS011;25908;51.984;5.928;2022-08-19T03:59:00;12.35;;;9.80;;
39022;SDS011;25908;51.984;5.928;2022-08-19T04:01:27;15.27;;;10.43;;
39022;SDS011;25908;51.984;5.928;2022-08-19T04:03:53;10.95;;;9.10;;
39022;SDS011;25908;51.984;5.928;2022-08-19T04:06:23;12.52;;;9.68;;
39022;SDS011;25908;51.984;5.928;2022-08-19T04:08:52;15.05;;;10.18;;
39022;SDS011;25908;51.984;5.928;2022-08-19T04:11:23;11.45;;;9.73;;
39022;SDS011;25908;51.984;5.928;2022-08-19T04:13:53;13.77;;;10.95;;
39022;SDS011;25908;51.984;5.928;2022-08-19T04:16:21;14.52;;;10.90;;
39022;SDS011;25908;51.984;5.928;2022-08-19T04:18:48;14.38;;;11.50;;
39022;SDS011;25908;51.984;5.928;2022-08-19T04:21:19;11.65;;;10.32;;
39022;SDS011;25908;51.984;5.928;2022-08-19T04:23:46;15.57;;;11.20;;
39022;SDS011;25908;51.984;5.928;2022-08-19T04:26:16;11.77;;;10.23;;
39022;SDS011;25908;51.984;5.928;2022-08-19T04:28:44;15.63;;;10.73;;
39022;SDS011;25908;51.984;5.928;2022-08-19T04:31:14;12.70;;;10.02;;
39022;SDS011;25908;51.984;5.928;2022-08-19T04:33:42;11.77;;;9.98;;
39022;SDS011;25908;51.984;5.928;2022-08-19T04:36:07;11.95;;;10.02;;
39022;SDS011;25908;51.984;5.928;2022-08-19T04:38:41;11.30;;;10.05;;
39022;SDS011;25908;51.984;5.928;2022-08-19T04:41:06;11.57;;;10.43;;
39022;SDS011;25908;51.984;5.928;2022-08-19T04:43:50;11.88;;;10.30;;
39022;SDS011;25908;51.984;5.928;2022-08-19T04:46:16;11.95;;;10.20;;
39022;SDS011;25908;51.984;5.928;2022-08-19T04:48:42;13.27;;;11.60;;
39022;SDS011;25908;51.984;5.928;2022-08-19T04:51:09;12.65;;;10.77;;
39022;SDS011;25908;51.984;5.928;2022-08-19T04:53:38;11.60;;;9.88;;
39022;SDS011;25908;51.984;5.928;2022-08-19T04:56:06;10.88;;;9.73;;
39022;SDS011;25908;51.984;5.928;2022-08-19T04:58:34;13.20;;;11.00;;
39022;SDS011;25908;51.984;5.928;2022-08-19T05:01:00;12.15;;;10.52;;
39022;SDS011;25908;51.984;5.928;2022-08-19T05:03:27;10.48;;;9.38;;
39022;SDS011;25908;51.984;5.928;2022-08-19T05:05:58;12.27;;;10.20;;
39022;SDS011;25908;51.984;5.928;2022-08-19T05:08:29;10.43;;;9.15;;
39022;SDS011;25908;51.984;5.928;2022-08-19T05:10:55;12.07;;;9.68;;
39022;SDS011;25908;51.984;5.928;2022-08-19T05:13:22;10.40;;;9.32;;
39022;SDS011;25908;51.984;5.928;2022-08-19T05:15:55;11.45;;;10.23;;
39022;SDS011;25908;51.984;5.928;2022-08-19T05:18:22;12.48;;;10.82;;
39022;SDS011;25908;51.984;5.928;2022-08-19T05:21:07;11.48;;;10.18;;
39022;SDS011;25908;51.984;5.928;2022-08-19T05:23:53;11.05;;;9.95;;
39022;SDS011;25908;51.984;5.928;2022-08-19T05:26:18;11.75;;;9.18;;
39022;SDS011;25908;51.984;5.928;2022-08-19T05:28:44;12.88;;;9.95;;
39022;SDS011;25908;51.984;5.928;2022-08-19T05:31:09;13.15;;;9.73;;
39022;SDS011;25908;51.984;5.928;2022-08-19T05:33:35;11.90;;;10.15;;
39022;SDS011;25908;51.984;5.928;2022-08-19T05:36:01;12.70;;;11.23;;
39022;SDS011;25908;51.984;5.928;2022-08-19T05:38:27;14.38;;;11.88;;
39022;SDS011;25908;51.984;5.928;2022-08-19T05:40:54;12.32;;;11.02;;
39022;SDS011;25908;51.984;5.928;2022-08-19T05:43:20;11.95;;;10.65;;
39022;SDS011;25908;51.984;5.928;2022-08-19T05:45:45;13.52;;;11.85;;
39022;SDS011;25908;51.984;5.928;2022-08-19T05:48:11;13.05;;;11.05;;
39022;SDS011;25908;51.984;5.928;2022-08-19T05:50:38;15.05;;;13.25;;
39022;SDS011;25908;51.984;5.928;2022-08-19T05:53:05;14.63;;;13.02;;
39022;SDS011;25908;51.984;5.928;2022-08-19T05:55:33;15.90;;;13.75;;
39022;SDS011;25908;51.984;5.928;2022-08-19T05:58:00;16.90;;;14.45;;
39022;SDS011;25908;51.984;5.928;2022-08-19T06:00:26;17.38;;;15.45;;
39022;SDS011;25908;51.984;5.928;2022-08-19T06:02:52;18.05;;;16.15;;
39022;SDS011;25908;51.984;5.928;2022-08-19T06:05:19;19.25;;;17.25;;
39022;SDS011;25908;51.984;5.928;2022-08-19T06:07:44;19.33;;;17.08;;
39022;SDS011;25908;51.984;5.928;2022-08-19T06:10:10;18.67;;;15.68;;
39022;SDS011;25908;51.984;5.928;2022-08-19T06:12:37;22.75;;;18.75;;
39022;SDS011;25908;51.984;5.928;2022-08-19T06:15:10;26.38;;;20.83;;
39022;SDS011;25908;51.984;5.928;2022-08-19T06:17:37;19.13;;;15.98;;
39022;SDS011;25908;51.984;5.928;2022-08-19T06:20:03;20.08;;;17.60;;
39022;SDS011;25908;51.984;5.928;2022-08-19T06:22:41;19.67;;;17.58;;
39022;SDS011;25908;51.984;5.928;2022-08-19T06:25:09;17.02;;;14.75;;
39022;SDS011;25908;51.984;5.928;2022-08-19T06:27:36;17.52;;;15.63;;
39022;SDS011;25908;51.984;5.928;2022-08-19T06:30:02;21.73;;;18.35;;
39022;SDS011;25908;51.984;5.928;2022-08-19T06:32:29;18.52;;;16.17;;
39022;SDS011;25908;51.984;5.928;2022-08-19T06:34:55;20.25;;;17.90;;
39022;SDS011;25908;51.984;5.928;2022-08-19T06:37:20;24.27;;;17.10;;
39022;SDS011;25908;51.984;5.928;2022-08-19T06:39:46;15.93;;;14.30;;
39022;SDS011;25908;51.984;5.928;2022-08-19T06:42:13;22.42;;;15.02;;
39022;SDS011;25908;51.984;5.928;2022-08-19T06:44:41;17.63;;;14.55;;
39022;SDS011;25908;51.984;5.928;2022-08-19T06:47:09;19.90;;;13.57;;
39022;SDS011;25908;51.984;5.928;2022-08-19T06:49:36;21.33;;;18.10;;
39022;SDS011;25908;51.984;5.928;2022-08-19T06:52:02;22.58;;;17.95;;
39022;SDS011;25908;51.984;5.928;2022-08-19T06:54:28;23.60;;;17.15;;
39022;SDS011;25908;51.984;5.928;2022-08-19T06:56:54;22.65;;;19.00;;
39022;SDS011;25908;51.984;5.928;2022-08-19T06:59:22;45.45;;;34.47;;
39022;SDS011;25908;51.984;5.928;2022-08-19T07:01:52;33.83;;;24.83;;
39022;SDS011;25908;51.984;5.928;2022-08-19T07:04:21;34.33;;;26.60;;
39022;SDS011;25908;51.984;5.928;2022-08-19T07:06:49;34.63;;;26.20;;
39022;SDS011;25908;51.984;5.928;2022-08-19T07:09:17;29.30;;;22.35;;
39022;SDS011;25908;51.984;5.928;2022-08-19T07:11:44;40.28;;;28.65;;
39022;SDS011;25908;51.984;5.928;2022-08-19T07:14:11;39.10;;;28.98;;
39022;SDS011;25908;51.984;5.928;2022-08-19T07:16:37;51.15;;;36.25;;
39022;SDS011;25908;51.984;5.928;2022-08-19T07:19:02;42.88;;;31.08;;
39022;SDS011;25908;51.984;5.928;2022-08-19T07:21:28;44.78;;;31.08;;
39022;SDS011;25908;51.984;5.928;2022-08-19T07:23:54;52.35;;;36.92;;
39022;SDS011;25908;51.984;5.928;2022-08-19T07:26:28;53.70;;;34.90;;
39022;SDS011;25908;51.984;5.928;2022-08-19T07:28:56;51.42;;;34.25;;
39022;SDS011;25908;51.984;5.928;2022-08-19T07:31:22;52.35;;;31.50;;
39022;SDS011;25908;51.984;5.928;2022-08-19T07:33:51;57.88;;;38.33;;
39022;SDS011;25908;51.984;5.928;2022-08-19T07:36:19;53.35;;;36.72;;
39022;SDS011;25908;51.984;5.928;2022-08-19T07:38:47;47.85;;;31.52;;
39022;SDS011;25908;51.984;5.928;2022-08-19T07:41:17;56.22;;;36.75;;
39022;SDS011;25908;51.984;5.928;2022-08-19T07:43:44;55.50;;;37.00;;
39022;SDS011;25908;51.984;5.928;2022-08-19T07:46:10;53.95;;;36.05;;
39022;SDS011;25908;51.984;5.928;2022-08-19T07:48:39;57.17;;;35.95;;
39022;SDS011;25908;51.984;5.928;2022-08-19T07:51:10;60.25;;;37.22;;
39022;SDS011;25908;51.984;5.928;2022-08-19T07:53:36;62.67;;;42.47;;
39022;SDS011;25908;51.984;5.928;2022-08-19T07:56:03;60.28;;;43.25;;
39022;SDS011;25908;51.984;5.928;2022-08-19T07:58:30;62.25;;;45.05;;
39022;SDS011;25908;51.984;5.928;2022-08-19T08:00:57;61.67;;;44.67;;
39022;SDS011;25908;51.984;5.928;2022-08-19T08:03:23;60.58;;;45.30;;
39022;SDS011;25908;51.984;5.928;2022-08-19T08:06:07;60.38;;;43.15;;
39022;SDS011;25908;51.984;5.928;2022-08-19T08:08:51;55.83;;;42.72;;
39022;SDS011;25908;51.984;5.928;2022-08-19T08:11:36;58.80;;;43.65;;
39022;SDS011;25908;51.984;5.928;2022-08-19T08:14:07;67.90;;;46.47;;
39022;SDS011;25908;51.984;5.928;2022-08-19T08:16:34;61.97;;;44.08;;
39022;SDS011;25908;51.984;5.928;2022-08-19T08:19:03;58.72;;;43.15;;
39022;SDS011;25908;51.984;5.928;2022-08-19T08:21:30;55.60;;;43.42;;
39022;SDS011;25908;51.984;5.928;2022-08-19T08:23:56;55.20;;;42.83;;
39022;SDS011;25908;51.984;5.928;2022-08-19T08:26:21;62.78;;;39.63;;
39022;SDS011;25908;51.984;5.928;2022-08-19T08:28:47;54.22;;;42.95;;
39022;SDS011;25908;51.984;5.928;2022-08-19T08:31:14;53.92;;;41.60;;
39022;SDS011;25908;51.984;5.928;2022-08-19T08:33:39;49.22;;;41.65;;
39022;SDS011;25908;51.984;5.928;2022-08-19T08:36:07;50.50;;;38.15;;
39022;SDS011;25908;51.984;5.928;2022-08-19T08:38:33;49.47;;;40.95;;
39022;SDS011;25908;51.984;5.928;2022-08-19T08:41:01;52.15;;;41.40;;
39022;SDS011;25908;51.984;5.928;2022-08-19T08:43:44;40.50;;;34.75;;
39022;SDS011;25908;51.984;5.928;2022-08-19T08:46:17;36.70;;;32.13;;
39022;SDS011;25908;51.984;5.928;2022-08-19T08:48:57;32.50;;;29.00;;
39022;SDS011;25908;51.984;5.928;2022-08-19T08:51:37;34.53;;;30.55;;
39022;SDS011;25908;51.984;5.928;2022-08-19T08:54:10;37.20;;;30.00;;
39022;SDS011;25908;51.984;5.928;2022-08-19T08:56:38;33.38;;;29.80;;
39022;SDS011;25908;51.984;5.928;2022-08-19T08:59:06;36.50;;;27.90;;
39022;SDS011;25908;51.984;5.928;2022-08-19T09:01:37;32.63;;;27.77;;
39022;SDS011;25908;51.984;5.928;2022-08-19T09:04:06;39.22;;;29.05;;
39022;SDS011;25908;51.984;5.928;2022-08-19T09:06:40;30.10;;;25.70;;
39022;SDS011;25908;51.984;5.928;2022-08-19T09:09:33;30.85;;;25.13;;
39022;SDS011;25908;51.984;5.928;2022-08-19T09:12:12;31.38;;;24.05;;
39022;SDS011;25908;51.984;5.928;2022-08-19T09:14:52;33.33;;;26.30;;
39022;SDS011;25908;51.984;5.928;2022-08-19T09:17:23;27.73;;;24.58;;
39022;SDS011;25908;51.984;5.928;2022-08-19T09:20:04;34.58;;;24.88;;
39022;SDS011;25908;51.984;5.928;2022-08-19T09:22:39;31.38;;;24.33;;
39022;SDS011;25908;51.984;5.928;2022-08-19T09:25:09;24.13;;;21.05;;
39022;SDS011;25908;51.984;5.928;2022-08-19T09:27:36;32.13;;;24.00;;
39022;SDS011;25908;51.984;5.928;2022-08-19T09:30:04;32.97;;;26.17;;
39022;SDS011;25908;51.984;5.928;2022-08-19T09:32:30;30.50;;;27.13;;
39022;SDS011;25908;51.984;5.928;2022-08-19T09:34:56;29.08;;;24.23;;
39022;SDS011;25908;51.984;5.928;2022-08-19T09:37:23;32.55;;;24.20;;
39022;SDS011;25908;51.984;5.928;2022-08-19T09:39:49;28.15;;;21.88;;
39022;SDS011;25908;51.984;5.928;2022-08-19T09:42:15;30.85;;;24.00;;
39022;SDS011;25908;51.984;5.928;2022-08-19T09:44:41;28.67;;;23.00;;
39022;SDS011;25908;51.984;5.928;2022-08-19T09:47:07;27.02;;;22.15;;
39022;SDS011;25908;51.984;5.928;2022-08-19T09:49:34;31.63;;;24.02;;
39022;SDS011;25908;51.984;5.928;2022-08-19T09:52:00;28.70;;;22.55;;
39022;SDS011;25908;51.984;5.928;2022-08-19T09:54:26;27.75;;;22.17;;
39022;SDS011;25908;51.984;5.928;2022-08-19T09:56:52;28.08;;;20.13;;
39022;SDS011;25908;51.984;5.928;2022-08-19T09:59:19;30.33;;;23.73;;
39022;SDS011;25908;51.984;5.928;2022-08-19T10:01:45;27.55;;;20.60;;
39022;SDS011;25908;51.984;5.928;2022-08-19T10:04:11;27.48;;;20.17;;
39022;SDS011;25908;51.984;5.928;2022-08-19T10:06:37;20.15;;;16.02;;
39022;SDS011;25908;51.984;5.928;2022-08-19T10:09:04;23.42;;;18.05;;
39022;SDS011;25908;51.984;5.928;2022-08-19T10:11:32;21.98;;;17.20;;
39022;SDS011;25908;51.984;5.928;2022-08-19T10:13:59;18.85;;;14.60;;
39022;SDS011;25908;51.984;5.928;2022-08-19T10:16:26;24.13;;;18.77;;
39022;SDS011;25908;51.984;5.928;2022-08-19T10:18:52;22.55;;;17.65;;
39022;SDS011;25908;51.984;5.928;2022-08-19T10:21:20;21.40;;;16.88;;
39022;SDS011;25908;51.984;5.928;2022-08-19T10:23:50;22.00;;;16.02;;
39022;SDS011;25908;51.984;5.928;2022-08-19T10:26:18;21.33;;;17.00;;
39022;SDS011;25908;51.984;5.928;2022-08-19T10:28:45;19.95;;;16.15;;
39022;SDS011;25908;51.984;5.928;2022-08-19T10:31:13;23.08;;;16.55;;
39022;SDS011;25908;51.984;5.928;2022-08-19T10:33:42;25.08;;;17.27;;
39022;SDS011;25908;51.984;5.928;2022-08-19T10:36:10;27.15;;;20.40;;
39022;SDS011;25908;51.984;5.928;2022-08-19T10:38:40;26.45;;;18.02;;
39022;SDS011;25908;51.984;5.928;2022-08-19T10:43:39;23.40;;;18.70;;
39022;SDS011;25908;51.984;5.928;2022-08-19T10:46:06;22.15;;;15.60;;
39022;SDS011;25908;51.984;5.928;2022-08-19T10:48:37;26.70;;;20.52;;
39022;SDS011;25908;51.984;5.928;2022-08-19T10:51:03;22.33;;;16.70;;
39022;SDS011;25908;51.984;5.928;2022-08-19T10:53:48;26.73;;;20.13;;
39022;SDS011;25908;51.984;5.928;2022-08-19T10:56:14;21.02;;;16.00;;
39022;SDS011;25908;51.984;5.928;2022-08-19T10:58:59;20.75;;;16.27;;
39022;SDS011;25908;51.984;5.928;2022-08-19T11:01:25;26.25;;;18.17;;
39022;SDS011;25908;51.984;5.928;2022-08-19T11:03:52;22.70;;;16.75;;
39022;SDS011;25908;51.984;5.928;2022-08-19T11:06:17;29.90;;;20.63;;
39022;SDS011;25908;51.984;5.928;2022-08-19T11:08:44;30.95;;;21.10;;
39022;SDS011;25908;51.984;5.928;2022-08-19T11:11:10;26.17;;;20.02;;
39022;SDS011;25908;51.984;5.928;2022-08-19T11:13:37;23.60;;;18.02;;
39022;SDS011;25908;51.984;5.928;2022-08-19T11:18:35;27.83;;;16.92;;
39022;SDS011;25908;51.984;5.928;2022-08-19T11:21:05;26.88;;;17.05;;
39022;SDS011;25908;51.984;5.928;2022-08-19T11:23:32;22.92;;;16.48;;
39022;SDS011;25908;51.984;5.928;2022-08-19T11:25:58;22.17;;;17.80;;
39022;SDS011;25908;51.984;5.928;2022-08-19T11:28:24;20.08;;;16.02;;
39022;SDS011;25908;51.984;5.928;2022-08-19T11:30:50;23.33;;;17.23;;
39022;SDS011;25908;51.984;5.928;2022-08-19T11:33:15;18.92;;;13.20;;
39022;SDS011;25908;51.984;5.928;2022-08-19T11:35:41;19.77;;;15.98;;
39022;SDS011;25908;51.984;5.928;2022-08-19T11:38:06;18.98;;;14.63;;
39022;SDS011;25908;51.984;5.928;2022-08-19T11:40:32;20.58;;;16.02;;
39022;SDS011;25908;51.984;5.928;2022-08-19T11:42:58;19.60;;;15.13;;
39022;SDS011;25908;51.984;5.928;2022-08-19T11:45:24;19.55;;;13.68;;
39022;SDS011;25908;51.984;5.928;2022-08-19T11:47:51;17.25;;;11.18;;
39022;SDS011;25908;51.984;5.928;2022-08-19T11:50:17;17.17;;;11.73;;
39022;SDS011;25908;51.984;5.928;2022-08-19T11:52:43;16.60;;;11.90;;
39022;SDS011;25908;51.984;5.928;2022-08-19T11:55:10;17.80;;;13.77;;
39022;SDS011;25908;51.984;5.928;2022-08-19T11:57:37;15.50;;;12.40;;
39022;SDS011;25908;51.984;5.928;2022-08-19T12:00:03;15.40;;;10.25;;
39022;SDS011;25908;51.984;5.928;2022-08-19T12:02:31;18.00;;;15.55;;
39022;SDS011;25908;51.984;5.928;2022-08-19T12:04:56;17.40;;;11.10;;
39022;SDS011;25908;51.984;5.928;2022-08-19T12:07:22;24.27;;;17.48;;
39022;SDS011;25908;51.984;5.928;2022-08-19T12:09:47;17.63;;;13.15;;
39022;SDS011;25908;51.984;5.928;2022-08-19T12:12:13;17.38;;;11.85;;
39022;SDS011;25908;51.984;5.928;2022-08-19T12:14:39;18.25;;;13.90;;
39022;SDS011;25908;51.984;5.928;2022-08-19T12:17:04;15.95;;;12.60;;
39022;SDS011;25908;51.984;5.928;2022-08-19T12:19:32;18.52;;;12.07;;
39022;SDS011;25908;51.984;5.928;2022-08-19T12:21:59;16.88;;;11.55;;
39022;SDS011;25908;51.984;5.928;2022-08-19T12:24:30;16.90;;;12.65;;
39022;SDS011;25908;51.984;5.928;2022-08-19T12:26:56;14.35;;;12.30;;
39022;SDS011;25908;51.984;5.928;2022-08-19T12:29:23;16.63;;;12.10;;
39022;SDS011;25908;51.984;5.928;2022-08-19T12:31:54;14.05;;;12.20;;
39022;SDS011;25908;51.984;5.928;2022-08-19T12:34:26;18.15;;;14.45;;
39022;SDS011;25908;51.984;5.928;2022-08-19T12:36:55;18.38;;;14.80;;
39022;SDS011;25908;51.984;5.928;2022-08-19T12:39:25;22.10;;;18.08;;
39022;SDS011;25908;51.984;5.928;2022-08-19T12:41:51;20.08;;;15.52;;
39022;SDS011;25908;51.984;5.928;2022-08-19T12:44:18;19.13;;;15.65;;
39022;SDS011;25908;51.984;5.928;2022-08-19T12:46:44;17.00;;;14.20;;
39022;SDS011;25908;51.984;5.928;2022-08-19T12:49:09;20.73;;;17.52;;
39022;SDS011;25908;51.984;5.928;2022-08-19T12:51:35;20.88;;;17.23;;
39022;SDS011;25908;51.984;5.928;2022-08-19T12:54:00;16.55;;;14.07;;
39022;SDS011;25908;51.984;5.928;2022-08-19T12:56:28;16.40;;;14.15;;
39022;SDS011;25908;51.984;5.928;2022-08-19T12:58:54;15.52;;;13.93;;
39022;SDS011;25908;51.984;5.928;2022-08-19T13:01:20;18.00;;;15.70;;
39022;SDS011;25908;51.984;5.928;2022-08-19T13:03:46;18.30;;;16.17;;
39022;SDS011;25908;51.984;5.928;2022-08-19T13:06:11;20.23;;;15.52;;
39022;SDS011;25908;51.984;5.928;2022-08-19T13:08:38;18.08;;;14.55;;
39022;SDS011;25908;51.984;5.928;2022-08-19T13:11:13;20.60;;;13.85;;
39022;SDS011;25908;51.984;5.928;2022-08-19T13:13:42;17.80;;;13.57;;
39022;SDS011;25908;51.984;5.928;2022-08-19T13:16:10;20.05;;;15.38;;
39022;SDS011;25908;51.984;5.928;2022-08-19T13:18:36;24.75;;;15.68;;
39022;SDS011;25908;51.984;5.928;2022-08-19T13:21:04;20.25;;;14.00;;
39022;SDS011;25908;51.984;5.928;2022-08-19T13:23:31;20.50;;;17.98;;
39022;SDS011;25908;51.984;5.928;2022-08-19T13:26:02;22.92;;;18.45;;
39022;SDS011;25908;51.984;5.928;2022-08-19T13:28:30;19.98;;;16.33;;
39022;SDS011;25908;51.984;5.928;2022-08-19T13:31:17;21.60;;;14.45;;
39022;SDS011;25908;51.984;5.928;2022-08-19T13:34:03;19.15;;;14.07;;
39022;SDS011;25908;51.984;5.928;2022-08-19T13:36:30;21.45;;;16.17;;
39022;SDS011;25908;51.984;5.928;2022-08-19T13:38:56;17.42;;;14.25;;
39022;SDS011;25908;51.984;5.928;2022-08-19T13:41:22;18.00;;;14.90;;
39022;SDS011;25908;51.984;5.928;2022-08-19T13:43:48;18.85;;;13.38;;
39022;SDS011;25908;51.984;5.928;2022-08-19T13:46:14;18.48;;;16.50;;
39022;SDS011;25908;51.984;5.928;2022-08-19T13:48:40;20.00;;;16.23;;
39022;SDS011;25908;51.984;5.928;2022-08-19T13:51:07;18.33;;;14.65;;
39022;SDS011;25908;51.984;5.928;2022-08-19T13:53:35;17.13;;;13.40;;
39022;SDS011;25908;51.984;5.928;2022-08-19T13:56:04;17.25;;;15.43;;
39022;SDS011;25908;51.984;5.928;2022-08-19T13:58:30;16.17;;;14.48;;
39022;SDS011;25908;51.984;5.928;2022-08-19T14:00:56;16.75;;;14.60;;
39022;SDS011;25908;51.984;5.928;2022-08-19T14:03:23;19.73;;;14.25;;
39022;SDS011;25908;51.984;5.928;2022-08-19T14:05:49;13.95;;;12.45;;
39022;SDS011;25908;51.984;5.928;2022-08-19T14:08:15;13.70;;;11.15;;
39022;SDS011;25908;51.984;5.928;2022-08-19T14:10:41;15.65;;;14.05;;
39022;SDS011;25908;51.984;5.928;2022-08-19T14:13:09;17.33;;;13.38;;
39022;SDS011;25908;51.984;5.928;2022-08-19T14:15:37;18.45;;;13.77;;
39022;SDS011;25908;51.984;5.928;2022-08-19T14:18:03;18.10;;;16.20;;
39022;SDS011;25908;51.984;5.928;2022-08-19T14:20:29;21.63;;;18.65;;
39022;SDS011;25908;51.984;5.928;2022-08-19T14:22:54;22.23;;;18.60;;
39022;SDS011;25908;51.984;5.928;2022-08-19T14:25:22;17.23;;;13.07;;
39022;SDS011;25908;51.984;5.928;2022-08-19T14:27:51;19.98;;;16.05;;
39022;SDS011;25908;51.984;5.928;2022-08-19T14:30:27;17.77;;;14.93;;
39022;SDS011;25908;51.984;5.928;2022-08-19T14:32:55;17.00;;;14.35;;
39022;SDS011;25908;51.984;5.928;2022-08-19T14:35:22;21.88;;;15.48;;
39022;SDS011;25908;51.984;5.928;2022-08-19T14:37:49;20.23;;;15.70;;